Time;durP1;ratioP1;P1;durP2;ratioP2;P2;SDS_P1;SDS_P2;PMS_P1;PMS_P2;Temp;Humidity;BMP_temperature;BMP_pressure;BME280_temperature;BME280_humidity;BME280_pressure;Samples;Min_cycle;Max_cycle;Signal;HPM_P1;HPM_P2
2021/07/28 00:01:30;;;;;;;13.55;8.07;;;17.90;99.90;;;;;;5032620;28;20037;-69
2021/07/28 00:03:56;;;;;;;14.23;8.30;;;17.90;99.90;;;;;;5032196;28;20123;-70
2021/07/28 00:06:23;;;;;;;14.48;8.63;;;17.90;99.90;;;;;;5032231;28;20040;-70
2021/07/28 00:08:50;;;;;;;16.98;7.97;;;17.90;99.90;;;;;;5031400;28;20203;-70
2021/07/28 00:11:18;;;;;;;11.35;7.70;;;17.90;99.90;;;;;;4998154;28;20037;-70
2021/07/28 00:13:46;;;;;;;14.20;8.07;;;18.00;99.90;;;;;;5032089;28;20112;-70
2021/07/28 00:16:14;;;;;;;12.25;6.97;;;18.00;99.90;;;;;;5031958;28;20507;-70
2021/07/28 00:18:58;;;;;;;13.93;8.10;;;18.10;99.90;;;;;;5031254;28;20044;-70
2021/07/28 00:24:08;;;;;;;12.35;8.38;;;18.30;99.90;;;;;;5032320;28;20481;-70
2021/07/28 00:26:34;;;;;;;12.45;7.63;;;18.30;99.90;;;;;;5032375;28;20038;-70
2021/07/28 00:29:00;;;;;;;12.27;6.53;;;18.30;99.90;;;;;;5032147;28;20469;-69
2021/07/28 00:31:26;;;;;;;13.70;6.72;;;18.50;99.90;;;;;;5031077;28;20025;-69
2021/07/28 00:33:52;;;;;;;9.23;6.60;;;18.30;99.90;;;;;;5032307;28;20029;-69
2021/07/28 00:36:17;;;;;;;9.07;6.43;;;18.30;99.90;;;;;;5032202;28;20033;-69
2021/07/28 00:38:44;;;;;;;12.93;7.20;;;18.40;99.90;;;;;;5031980;28;20033;-69
2021/07/28 00:41:11;;;;;;;9.48;5.70;;;18.30;99.90;;;;;;5032136;28;20033;-69
2021/07/28 00:43:37;;;;;;;10.27;6.30;;;18.30;99.90;;;;;;5030827;28;20034;-69
2021/07/28 00:46:03;;;;;;;10.15;6.00;;;18.30;99.90;;;;;;5031525;28;20045;-69
2021/07/28 00:48:29;;;;;;;8.73;5.75;;;18.20;99.90;;;;;;5030701;28;20037;-69
2021/07/28 00:50:55;;;;;;;9.82;6.38;;;18.20;99.90;;;;;;5031981;28;20478;-69
2021/07/28 00:53:21;;;;;;;9.02;6.03;;;18.20;99.90;;;;;;5031936;28;20112;-69
2021/07/28 00:55:49;;;;;;;13.48;7.90;;;18.20;99.90;;;;;;5014673;28;20451;-69
2021/07/28 00:58:16;;;;;;;9.98;7.03;;;18.20;99.90;;;;;;5032588;28;20033;-69
2021/07/28 01:00:42;;;;;;;12.98;7.75;;;18.20;99.90;;;;;;5032432;28;20478;-69
2021/07/28 01:03:09;;;;;;;10.95;7.80;;;18.10;99.90;;;;;;5030759;28;20036;-69
2021/07/28 01:05:36;;;;;;;12.20;7.93;;;18.10;99.90;;;;;;5031372;28;20040;-69
2021/07/28 01:08:02;;;;;;;13.43;8.05;;;18.10;99.90;;;;;;5031476;28;20040;-69
2021/07/28 01:10:28;;;;;;;10.98;7.68;;;18.10;99.90;;;;;;5031153;28;20041;-69
2021/07/28 01:12:55;;;;;;;12.93;8.18;;;18.10;99.90;;;;;;5032474;28;20034;-69
2021/07/28 01:18:19;;;;;;;14.98;9.48;;;18.10;99.90;;;;;;5013491;28;20106;-68
2021/07/28 01:20:47;;;;;;;14.73;9.38;;;18.10;99.90;;;;;;5031779;28;20068;-68
2021/07/28 01:23:27;;;;;;;16.25;9.50;;;18.20;99.90;;;;;;5029984;28;20486;-68
2021/07/28 01:25:54;;;;;;;18.27;10.68;;;18.20;99.90;;;;;;5030626;28;20525;-68
2021/07/28 01:28:23;;;;;;;15.93;10.35;;;18.10;99.90;;;;;;5035102;28;20026;-68
2021/07/28 01:31:07;;;;;;;20.90;10.18;;;18.10;99.90;;;;;;5018084;28;20038;-68
2021/07/28 01:33:39;;;;;;;15.88;10.57;;;18.10;99.90;;;;;;5035334;28;20029;-68
2021/07/28 01:36:19;;;;;;;19.23;10.85;;;18.00;99.90;;;;;;5033834;28;20038;-68
2021/07/28 01:38:45;;;;;;;17.37;10.87;;;18.10;99.90;;;;;;5034148;28;20038;-68
2021/07/28 01:41:12;;;;;;;16.08;10.68;;;18.10;99.90;;;;;;5033950;28;20363;-68
2021/07/28 01:43:40;;;;;;;17.75;10.73;;;18.00;99.90;;;;;;5033980;28;20051;-69
2021/07/28 01:46:07;;;;;;;16.75;11.25;;;18.00;99.90;;;;;;5033414;28;20046;-68
2021/07/28 01:48:33;;;;;;;15.52;10.13;;;18.00;99.90;;;;;;5034776;28;20065;-68
2021/07/28 01:50:59;;;;;;;18.67;10.43;;;18.00;99.90;;;;;;5033915;28;20037;-68
2021/07/28 01:53:27;;;;;;;16.50;10.85;;;18.00;99.90;;;;;;5034903;28;20466;-68
2021/07/28 01:55:54;;;;;;;18.67;11.80;;;18.00;99.90;;;;;;5033873;28;20156;-68
2021/07/28 01:58:20;;;;;;;20.15;11.75;;;17.90;99.90;;;;;;5034540;28;20083;-68
2021/07/28 02:00:47;;;;;;;20.42;12.55;;;17.80;99.90;;;;;;5034991;28;20061;-68
2021/07/28 02:03:13;;;;;;;20.50;12.20;;;17.80;99.90;;;;;;5034695;28;20021;-68
2021/07/28 02:05:41;;;;;;;20.92;13.45;;;17.70;99.90;;;;;;5034835;28;20036;-68
2021/07/28 02:08:13;;;;;;;23.90;14.85;;;17.60;99.90;;;;;;5034635;28;20049;-68
2021/07/28 02:10:48;;;;;;;21.83;13.98;;;17.60;99.90;;;;;;5033200;28;20451;-68
2021/07/28 02:13:20;;;;;;;23.80;14.98;;;17.40;99.90;;;;;;5033452;28;20033;-68
2021/07/28 02:15:47;;;;;;;23.95;14.27;;;17.30;99.90;;;;;;5034646;28;20029;-68
2021/07/28 02:18:13;;;;;;;22.30;14.55;;;17.20;99.90;;;;;;5034238;28;20041;-68
2021/07/28 02:20:39;;;;;;;22.70;14.15;;;17.20;99.90;;;;;;5034195;28;20033;-68
2021/07/28 02:23:05;;;;;;;24.90;14.52;;;17.20;99.90;;;;;;5032891;28;20724;-68
2021/07/28 02:25:31;;;;;;;22.13;13.65;;;17.10;99.90;;;;;;5033240;28;20048;-68
2021/07/28 02:27:57;;;;;;;27.17;15.25;;;17.10;99.90;;;;;;5034329;28;20080;-67
2021/07/28 02:30:23;;;;;;;27.25;15.52;;;17.00;99.90;;;;;;5032764;28;20034;-67
2021/07/28 02:32:49;;;;;;;24.08;15.63;;;17.10;99.90;;;;;;5033105;28;20033;-67
2021/07/28 02:35:16;;;;;;;27.10;16.02;;;17.30;99.90;;;;;;5032639;28;20398;-67
2021/07/28 02:37:43;;;;;;;30.83;16.30;;;17.30;99.90;;;;;;5032250;28;20057;-67
2021/07/28 02:40:12;;;;;;;24.10;14.75;;;17.30;99.90;;;;;;5034090;28;20052;-67
2021/07/28 02:42:38;;;;;;;25.80;15.43;;;17.20;99.90;;;;;;5034122;28;20068;-67
2021/07/28 02:45:05;;;;;;;22.85;14.95;;;17.20;99.90;;;;;;5032418;28;20079;-67
2021/07/28 02:47:30;;;;;;;26.52;15.60;;;17.10;99.90;;;;;;5033642;28;20474;-68
2021/07/28 02:49:56;;;;;;;24.17;15.05;;;17.20;99.90;;;;;;5032305;28;20113;-67
2021/07/28 02:52:22;;;;;;;25.90;16.13;;;17.10;99.90;;;;;;5032339;28;20036;-67
2021/07/28 02:54:48;;;;;;;27.08;16.30;;;17.10;99.90;;;;;;5033900;28;20528;-69
2021/07/28 02:57:13;;;;;;;32.95;18.15;;;17.00;99.90;;;;;;5033394;28;20042;-68
2021/07/28 02:59:39;;;;;;;33.45;17.60;;;17.00;99.90;;;;;;5032212;28;20453;-68
2021/07/28 03:02:05;;;;;;;33.33;17.42;;;17.00;99.90;;;;;;5033753;28;20092;-67
2021/07/28 03:04:31;;;;;;;29.35;16.67;;;16.90;99.90;;;;;;5033252;28;20389;-68
2021/07/28 03:06:56;;;;;;;26.55;16.17;;;16.90;99.90;;;;;;5033480;28;20029;-68
2021/07/28 03:09:22;;;;;;;32.20;17.90;;;16.80;99.90;;;;;;5032036;28;20029;-68
2021/07/28 03:11:48;;;;;;;27.83;17.08;;;16.80;99.90;;;;;;5033654;28;20037;-68
2021/07/28 03:14:13;;;;;;;34.42;19.23;;;16.80;99.90;;;;;;5033130;28;20018;-68
2021/07/28 03:16:40;;;;;;;33.35;18.50;;;16.70;99.90;;;;;;5033698;28;20108;-67
2021/07/28 03:19:06;;;;;;;33.25;18.08;;;16.70;99.90;;;;;;5033226;28;20058;-67
2021/07/28 03:21:33;;;;;;;34.88;18.13;;;16.70;99.90;;;;;;5015276;28;20033;-67
2021/07/28 03:23:59;;;;;;;32.72;18.33;;;16.60;99.90;;;;;;5033314;28;20061;-68
2021/07/28 03:26:25;;;;;;;35.28;18.52;;;16.70;99.90;;;;;;5033156;28;20364;-68
2021/07/28 03:28:51;;;;;;;32.53;17.73;;;16.70;99.90;;;;;;5033221;28;20044;-67
2021/07/28 03:31:16;;;;;;;33.50;18.38;;;16.70;99.90;;;;;;5031597;28;20026;-67
2021/07/28 03:33:42;;;;;;;34.80;19.10;;;16.70;99.90;;;;;;5033201;28;20240;-67
2021/07/28 03:36:08;;;;;;;33.22;18.10;;;16.70;99.90;;;;;;5033151;28;20378;-68
2021/07/28 03:38:34;;;;;;;40.05;19.63;;;16.70;99.90;;;;;;5032857;28;20056;-68
2021/07/28 03:41:00;;;;;;;32.30;18.70;;;16.70;99.90;;;;;;5032958;28;20542;-68
2021/07/28 03:43:25;;;;;;;33.90;18.10;;;16.70;99.90;;;;;;5032942;28;20103;-68
2021/07/28 03:45:51;;;;;;;29.98;16.83;;;16.70;99.90;;;;;;5031173;28;20053;-67
2021/07/28 03:48:17;;;;;;;37.53;17.65;;;16.70;99.90;;;;;;5031769;28;20029;-67
2021/07/28 03:50:43;;;;;;;29.25;17.05;;;16.70;99.90;;;;;;5031079;28;20095;-67
2021/07/28 03:53:09;;;;;;;28.17;17.00;;;16.70;99.90;;;;;;5029599;28;20032;-67
2021/07/28 03:55:35;;;;;;;23.88;15.55;;;16.70;99.90;;;;;;5031571;28;20030;-67
2021/07/28 03:58:01;;;;;;;24.50;14.90;;;16.70;99.90;;;;;;5032879;28;20485;-73
2021/07/28 04:00:26;;;;;;;22.25;14.90;;;16.80;99.90;;;;;;5045437;28;20025;-75
2021/07/28 04:02:52;;;;;;;24.17;13.88;;;16.90;99.90;;;;;;5052603;28;20044;-78
2021/07/28 04:05:18;;;;;;;21.85;14.02;;;16.90;99.90;;;;;;5051155;28;20028;-75
2021/07/28 04:07:45;;;;;;;25.02;14.68;;;16.90;99.90;;;;;;5052299;28;20074;-76
2021/07/28 04:10:11;;;;;;;25.77;15.25;;;16.80;99.90;;;;;;5050956;28;20048;-72
2021/07/28 04:12:37;;;;;;;26.65;14.88;;;16.70;99.90;;;;;;5052322;28;20160;-78
2021/07/28 04:15:04;;;;;;;27.35;15.07;;;16.70;99.90;;;;;;5050804;28;20094;-73
2021/07/28 04:17:30;;;;;;;21.88;14.05;;;16.70;99.90;;;;;;5050942;28;20056;-74
2021/07/28 04:19:56;;;;;;;23.80;14.73;;;16.70;99.90;;;;;;5052125;28;20029;-75
2021/07/28 04:22:22;;;;;;;22.42;14.18;;;16.60;99.90;;;;;;5051053;28;20377;-81
2021/07/28 04:24:48;;;;;;;21.52;13.73;;;16.70;99.90;;;;;;5032795;28;20037;-71
2021/07/28 04:27:14;;;;;;;20.15;13.57;;;16.70;99.90;;;;;;5011271;28;20026;-75
2021/07/28 04:29:40;;;;;;;22.25;13.40;;;16.70;99.90;;;;;;5010931;28;20375;-73
2021/07/28 04:32:07;;;;;;;20.42;13.52;;;16.70;99.90;;;;;;5012322;28;20029;-77
2021/07/28 04:34:37;;;;;;;25.77;12.63;;;16.70;99.90;;;;;;5011289;28;20414;-72
2021/07/28 04:37:03;;;;;;;22.58;14.45;;;16.80;99.90;;;;;;5012560;28;20029;-75
2021/07/28 04:39:33;;;;;;;19.63;12.63;;;16.90;99.90;;;;;;5011881;28;20030;-75
2021/07/28 04:41:59;;;;;;;20.58;13.50;;;16.90;99.90;;;;;;5010951;28;20402;-72
2021/07/28 04:44:25;;;;;;;21.60;13.00;;;16.80;99.90;;;;;;5010829;28;20038;-72
2021/07/28 04:46:51;;;;;;;20.58;11.35;;;16.80;99.90;;;;;;5011227;28;20056;-72
2021/07/28 04:49:17;;;;;;;18.13;11.73;;;16.80;99.90;;;;;;5011872;28;20040;-72
2021/07/28 04:51:42;;;;;;;17.15;11.82;;;16.90;99.90;;;;;;5012314;28;20026;-72
2021/07/28 04:54:08;;;;;;;19.75;11.63;;;16.90;99.90;;;;;;5011861;28;20033;-71
2021/07/28 04:56:34;;;;;;;19.42;11.43;;;16.90;99.90;;;;;;5011918;28;20034;-71
2021/07/28 04:59:00;;;;;;;17.55;11.65;;;16.90;99.90;;;;;;5012373;28;20454;-72
2021/07/28 05:01:25;;;;;;;19.10;11.80;;;16.90;99.90;;;;;;5014897;28;20049;-71
2021/07/28 05:03:51;;;;;;;22.48;11.23;;;16.90;99.90;;;;;;5016273;28;20038;-73
2021/07/28 05:06:17;;;;;;;15.50;10.65;;;16.90;99.90;;;;;;5014646;28;20491;-73
2021/07/28 05:08:43;;;;;;;15.65;10.35;;;16.90;99.90;;;;;;5015970;28;20030;-71
2021/07/28 05:11:08;;;;;;;14.43;10.10;;;17.00;99.90;;;;;;5016041;28;20033;-72
2021/07/28 05:13:34;;;;;;;18.90;11.52;;;17.20;99.90;;;;;;5015504;28;20034;-73
2021/07/28 05:16:00;;;;;;;17.20;10.05;;;17.10;99.90;;;;;;5015731;28;20029;-73
2021/07/28 05:18:26;;;;;;;15.27;9.43;;;17.10;99.90;;;;;;5014245;28;20447;-72
2021/07/28 05:20:51;;;;;;;15.25;9.43;;;17.20;99.90;;;;;;5013847;28;20048;-73
2021/07/28 05:23:17;;;;;;;12.90;9.10;;;17.20;99.90;;;;;;5017612;28;20057;-72
2021/07/28 05:25:43;;;;;;;20.25;10.63;;;17.20;99.90;;;;;;5034331;28;20037;-73
2021/07/28 05:28:09;;;;;;;21.08;11.75;;;17.20;99.90;;;;;;5035110;28;20144;-73
2021/07/28 05:30:35;;;;;;;22.08;12.10;;;17.10;99.90;;;;;;5034838;28;20048;-76
2021/07/28 05:33:00;;;;;;;17.55;11.02;;;17.20;99.90;;;;;;5017437;28;20059;-73
2021/07/28 05:35:26;;;;;;;17.30;10.25;;;17.20;99.90;;;;;;5035113;28;20052;-72
2021/07/28 05:38:00;;;;;;;19.77;11.43;;;17.20;99.90;;;;;;5035226;28;20112;-72
2021/07/28 05:40:26;;;;;;;14.30;10.15;;;17.20;99.90;;;;;;5034784;28;20034;-66
2021/07/28 05:42:52;;;;;;;16.70;10.88;;;17.40;99.90;;;;;;5034786;28;20033;-77
2021/07/28 05:45:18;;;;;;;15.70;9.85;;;17.50;99.90;;;;;;5034605;28;20077;-73
2021/07/28 05:47:45;;;;;;;19.42;11.02;;;17.60;99.90;;;;;;5034812;28;20041;-70
2021/07/28 05:50:15;;;;;;;13.10;9.63;;;17.60;99.90;;;;;;5034773;28;20042;-78
2021/07/28 05:52:43;;;;;;;16.55;8.98;;;17.80;99.90;;;;;;5035013;28;20086;-77
2021/07/28 05:55:09;;;;;;;14.18;8.80;;;17.90;99.90;;;;;;5030284;28;20045;-78
2021/07/28 05:57:36;;;;;;;15.60;8.57;;;17.80;99.90;;;;;;5013565;28;20049;-78
2021/07/28 06:00:04;;;;;;;14.85;10.40;;;17.80;99.90;;;;;;5013592;28;20042;-77
2021/07/28 06:02:30;;;;;;;18.98;9.70;;;17.80;99.90;;;;;;5014435;28;20026;-76
2021/07/28 06:04:55;;;;;;;13.75;9.23;;;17.90;99.90;;;;;;5013827;28;20032;-63
2021/07/28 06:07:24;;;;;;;14.20;9.40;;;17.80;99.90;;;;;;5031526;28;20482;-64
2021/07/28 06:09:50;;;;;;;11.70;8.48;;;17.90;99.90;;;;;;5033209;28;20030;-64
2021/07/28 06:12:17;;;;;;;17.20;9.75;;;18.10;99.90;;;;;;5033790;28;20036;-63
2021/07/28 06:14:44;;;;;;;19.25;9.82;;;18.10;99.90;;;;;;5034395;28;20041;-64
2021/07/28 06:17:10;;;;;;;21.95;14.45;;;17.90;99.90;;;;;;5032914;28;20037;-62
2021/07/28 06:19:36;;;;;;;14.70;10.48;;;18.20;99.90;;;;;;5034349;28;20041;-62
2021/07/28 06:22:02;;;;;;;15.63;9.35;;;18.20;99.90;;;;;;5034178;28;20036;-63
2021/07/28 06:24:28;;;;;;;16.60;10.02;;;18.30;99.90;;;;;;5032976;28;20032;-63
2021/07/28 06:26:54;;;;;;;16.85;9.15;;;18.10;99.90;;;;;;5033124;28;20025;-63
2021/07/28 06:29:21;;;;;;;14.18;8.27;;;18.10;99.90;;;;;;5032991;28;20034;-64
2021/07/28 06:31:47;;;;;;;13.77;8.55;;;18.20;99.90;;;;;;5034082;28;20061;-64
2021/07/28 06:34:13;;;;;;;12.82;9.60;;;18.20;99.90;;;;;;5034342;28;20087;-63
2021/07/28 06:36:39;;;;;;;16.20;8.50;;;18.30;99.90;;;;;;5033942;28;20037;-64
2021/07/28 06:39:04;;;;;;;12.60;8.32;;;18.30;99.90;;;;;;5016097;28;20095;-63
2021/07/28 06:41:30;;;;;;;14.10;8.35;;;18.40;99.90;;;;;;5033677;28;20072;-63
2021/07/28 06:43:56;;;;;;;15.25;7.55;;;18.30;99.90;;;;;;5032607;28;20543;-64
2021/07/28 06:46:21;;;;;;;15.32;9.27;;;18.30;99.90;;;;;;5033643;28;20438;-64
2021/07/28 06:48:47;;;;;;;14.18;9.07;;;18.30;99.90;;;;;;5032155;28;20065;-64
2021/07/28 06:51:14;;;;;;;13.63;8.55;;;18.40;99.90;;;;;;5033815;28;20033;-64
2021/07/28 06:53:40;;;;;;;15.93;8.95;;;18.30;99.90;;;;;;5033321;28;20026;-63
2021/07/28 06:56:05;;;;;;;15.35;9.07;;;18.30;99.90;;;;;;5033512;28;20045;-64
2021/07/28 06:58:31;;;;;;;12.27;8.52;;;18.30;99.90;;;;;;5033580;28;20029;-64
2021/07/28 07:00:58;;;;;;;15.88;10.27;;;18.40;99.90;;;;;;5033723;28;20036;-64
2021/07/28 07:03:24;;;;;;;16.88;9.90;;;18.40;99.90;;;;;;5033481;28;20033;-64
2021/07/28 07:05:50;;;;;;;15.82;10.27;;;18.40;99.90;;;;;;5033410;28;20036;-63
2021/07/28 07:08:16;;;;;;;16.02;10.10;;;18.60;99.90;;;;;;5033120;28;20421;-63
2021/07/28 07:10:42;;;;;;;15.02;10.48;;;18.60;99.90;;;;;;5033242;28;20055;-63
2021/07/28 07:13:07;;;;;;;16.08;11.02;;;18.40;99.90;;;;;;5031983;28;20117;-62
2021/07/28 07:15:34;;;;;;;18.17;10.30;;;18.30;99.90;;;;;;5033173;28;20087;-63
2021/07/28 07:17:59;;;;;;;15.25;10.13;;;18.20;99.90;;;;;;5033068;28;20036;-63
2021/07/28 07:20:25;;;;;;;18.83;10.40;;;18.20;99.90;;;;;;5031991;28;20033;-64
2021/07/28 07:22:51;;;;;;;19.98;11.30;;;18.40;99.90;;;;;;5033607;28;20037;-63
2021/07/28 07:25:17;;;;;;;18.67;11.45;;;18.50;99.90;;;;;;5033251;28;20041;-63
2021/07/28 07:27:45;;;;;;;16.88;11.13;;;18.70;99.90;;;;;;5033061;28;20029;-63
2021/07/28 07:30:11;;;;;;;15.07;10.35;;;18.70;99.90;;;;;;5031758;28;20108;-63
2021/07/28 07:32:36;;;;;;;14.10;9.13;;;18.70;99.90;;;;;;5032595;28;20534;-63
2021/07/28 07:35:03;;;;;;;16.92;10.10;;;18.70;99.90;;;;;;5033249;28;20029;-63
2021/07/28 07:37:28;;;;;;;15.20;9.75;;;18.70;99.90;;;;;;5031469;28;20022;-63
2021/07/28 07:39:54;;;;;;;14.05;9.88;;;18.90;99.90;;;;;;5032856;28;20308;-63
2021/07/28 07:42:20;;;;;;;20.48;10.60;;;19.00;99.90;;;;;;5032564;28;20029;-63
2021/07/28 07:44:48;;;;;;;13.73;9.25;;;19.10;99.90;;;;;;5032394;28;20080;-64
2021/07/28 07:47:14;;;;;;;18.88;10.50;;;18.90;99.90;;;;;;5032833;28;20033;-65
2021/07/28 07:49:40;;;;;;;15.50;10.85;;;19.00;99.90;;;;;;5032683;28;20033;-65
2021/07/28 07:52:06;;;;;;;17.13;10.45;;;18.80;99.90;;;;;;5032784;28;20040;-65
2021/07/28 07:54:33;;;;;;;15.25;10.57;;;19.00;99.90;;;;;;5031313;28;20037;-65
2021/07/28 07:56:59;;;;;;;15.63;10.15;;;18.80;99.90;;;;;;5032712;28;20029;-65
2021/07/28 07:59:25;;;;;;;12.50;9.45;;;18.90;99.90;;;;;;5032336;28;20033;-65
2021/07/28 08:01:51;;;;;;;13.52;9.02;;;19.10;99.90;;;;;;5031349;28;20037;-64
2021/07/28 08:04:20;;;;;;;13.07;8.43;;;19.10;99.90;;;;;;5035053;28;20032;-65
2021/07/28 08:06:46;;;;;;;13.00;8.75;;;19.10;99.90;;;;;;5031064;28;20042;-65
2021/07/28 08:09:12;;;;;;;14.13;8.52;;;19.30;99.90;;;;;;5032290;28;20470;-65
2021/07/28 08:11:38;;;;;;;13.40;8.52;;;19.40;99.90;;;;;;5032518;28;20037;-66
2021/07/28 08:14:04;;;;;;;13.40;9.07;;;19.40;99.90;;;;;;5032443;28;20021;-66
2021/07/28 08:16:30;;;;;;;16.63;7.97;;;19.50;99.90;;;;;;5032240;28;20052;-65
2021/07/28 08:18:56;;;;;;;12.02;8.57;;;19.50;99.90;;;;;;5032394;28;20033;-65
2021/07/28 08:21:21;;;;;;;11.35;7.38;;;19.60;99.90;;;;;;5031922;28;20106;-65
2021/07/28 08:23:48;;;;;;;14.48;7.90;;;19.50;99.90;;;;;;5032199;28;20033;-64
2021/07/28 08:26:15;;;;;;;13.82;8.13;;;19.50;99.90;;;;;;5031459;28;20118;-65
2021/07/28 08:28:43;;;;;;;12.95;7.80;;;19.60;99.90;;;;;;5030873;28;20034;-64
2021/07/28 08:31:10;;;;;;;13.43;8.43;;;19.60;99.90;;;;;;5031177;28;20163;-65
2021/07/28 08:33:36;;;;;;;14.20;8.05;;;19.60;99.90;;;;;;5030074;28;20041;-63
2021/07/28 08:36:02;;;;;;;11.50;7.55;;;19.70;99.90;;;;;;5036536;28;20037;-66
2021/07/28 08:38:28;;;;;;;9.30;6.97;;;19.60;99.90;;;;;;5037342;28;20035;-64
2021/07/28 08:41:01;;;;;;;10.13;7.55;;;19.70;99.90;;;;;;5038410;28;20091;-65
2021/07/28 08:43:33;;;;;;;11.75;7.05;;;19.60;99.90;;;;;;5038687;28;20117;-64
2021/07/28 08:46:05;;;;;;;12.02;7.70;;;19.80;99.90;;;;;;5037131;28;20056;-65
2021/07/28 08:48:33;;;;;;;11.45;7.10;;;19.80;99.90;;;;;;5037520;28;20462;-65
2021/07/28 08:51:02;;;;;;;12.45;7.03;;;20.00;99.90;;;;;;5038424;28;20037;-63
2021/07/28 08:53:28;;;;;;;13.18;8.32;;;20.00;99.90;;;;;;5038757;28;20117;-65
2021/07/28 08:55:57;;;;;;;12.38;7.20;;;20.00;99.90;;;;;;5038562;28;20077;-65
2021/07/28 08:58:26;;;;;;;11.18;6.63;;;20.00;99.90;;;;;;5037525;28;20160;-65
2021/07/28 09:00:53;;;;;;;13.25;7.60;;;20.00;99.90;;;;;;5037004;28;20405;-65
2021/07/28 09:03:19;;;;;;;15.43;7.57;;;20.00;99.90;;;;;;5037416;28;20036;-65
2021/07/28 09:05:51;;;;;;;11.18;7.57;;;20.00;99.90;;;;;;5038372;28;20464;-64
2021/07/28 09:08:28;;;;;;;11.90;6.82;;;20.10;99.90;;;;;;5038495;28;20083;-65
2021/07/28 09:11:06;;;;;;;8.55;6.07;;;20.20;99.90;;;;;;5038375;28;20033;-65
2021/07/28 09:13:41;;;;;;;11.48;7.43;;;20.10;99.90;;;;;;5038430;28;20099;-66
2021/07/28 09:16:14;;;;;;;13.20;7.55;;;20.20;99.90;;;;;;5038460;28;20041;-66
2021/07/28 09:18:45;;;;;;;11.30;7.60;;;20.20;99.90;;;;;;5037821;28;20449;-64
2021/07/28 09:21:20;;;;;;;10.45;6.53;;;20.20;99.90;;;;;;5038335;28;20513;-65
2021/07/28 09:23:53;;;;;;;10.15;6.75;;;20.20;99.90;;;;;;5037831;28;20379;-66
2021/07/28 09:26:30;;;;;;;11.23;7.00;;;20.40;99.90;;;;;;5036870;28;20042;-65
2021/07/28 09:29:02;;;;;;;11.60;6.10;;;20.40;99.90;;;;;;5037801;28;20037;-64
2021/07/28 09:31:53;;;;;;;9.00;5.95;;;20.50;99.90;;;;;;5037814;28;20041;-65
2021/07/28 09:34:22;;;;;;;10.23;5.75;;;20.50;99.90;;;;;;5038515;28;20029;-65
2021/07/28 09:37:04;;;;;;;8.75;6.22;;;20.70;99.90;;;;;;5038011;28;20402;-66
2021/07/28 09:39:35;;;;;;;12.88;6.50;;;20.60;99.90;;;;;;5038141;28;20029;-66
2021/07/28 09:42:16;;;;;;;10.23;6.30;;;20.70;99.90;;;;;;5038312;28;20033;-64
2021/07/28 09:44:48;;;;;;;9.03;5.30;;;20.90;99.90;;;;;;5037718;28;20087;-65
2021/07/28 09:47:22;;;;;;;10.02;6.32;;;21.00;99.90;;;;;;5034149;28;20033;-66
2021/07/28 09:50:11;;;;;;;10.02;6.18;;;21.20;99.90;;;;;;5034774;28;20052;-67
2021/07/28 09:52:37;;;;;;;9.77;5.88;;;20.80;99.90;;;;;;5034779;28;20034;-66
2021/07/28 09:55:29;;;;;;;9.30;5.78;;;21.00;99.90;;;;;;5033746;28;20119;-66
2021/07/28 09:57:59;;;;;;;10.93;6.20;;;21.00;99.90;;;;;;5034633;28;20033;-66
2021/07/28 10:00:28;;;;;;;10.30;6.15;;;21.20;99.90;;;;;;5035007;28;20099;-66
2021/07/28 10:03:01;;;;;;;9.23;6.43;;;21.30;99.90;;;;;;5033578;28;20033;-65
2021/07/28 10:05:28;;;;;;;9.88;6.40;;;21.10;99.90;;;;;;5033473;28;20108;-65
2021/07/28 10:08:02;;;;;;;9.75;5.65;;;21.00;99.90;;;;;;5037306;28;20037;-66
2021/07/28 10:10:30;;;;;;;10.77;5.78;;;21.00;99.90;;;;;;5034694;28;20033;-66
2021/07/28 10:12:57;;;;;;;10.52;6.13;;;20.90;99.90;;;;;;5033596;28;20033;-65
2021/07/28 10:15:24;;;;;;;10.32;5.93;;;21.00;99.90;;;;;;5033342;28;20112;-66
2021/07/28 10:17:51;;;;;;;10.25;5.57;;;21.20;99.90;;;;;;5034128;28;20037;-67
2021/07/28 10:20:17;;;;;;;7.43;5.03;;;21.40;99.90;;;;;;5034470;28;20129;-67
2021/07/28 10:22:43;;;;;;;9.43;5.93;;;21.70;99.90;;;;;;5034384;28;20119;-68
2021/07/28 10:25:15;;;;;;;10.02;5.90;;;22.00;99.90;;;;;;5033114;28;20100;-65
2021/07/28 10:27:49;;;;;;;11.80;6.13;;;21.90;99.90;;;;;;5034372;28;20056;-66
2021/07/28 10:30:18;;;;;;;10.40;5.47;;;21.80;99.90;;;;;;5034348;28;20037;-66
2021/07/28 10:32:45;;;;;;;8.52;5.45;;;22.00;99.90;;;;;;5034266;28;20030;-66
2021/07/28 10:35:22;;;;;;;8.73;5.13;;;22.00;99.90;;;;;;5034296;28;20426;-66
2021/07/28 10:37:52;;;;;;;7.28;5.00;;;22.30;99.90;;;;;;5033786;28;20493;-64
2021/07/28 10:40:24;;;;;;;11.85;5.32;;;22.60;99.90;;;;;;5032534;28;20044;-67
2021/07/28 10:42:50;;;;;;;7.72;5.00;;;22.90;99.90;;;;;;5022645;28;20112;-64
2021/07/28 10:45:19;;;;;;;7.43;4.80;;;22.80;99.90;;;;;;5019129;28;20133;-66
2021/07/28 10:47:51;;;;;;;8.60;5.07;;;22.80;99.90;;;;;;5014113;28;20026;-66
2021/07/28 10:50:23;;;;;;;9.50;4.53;;;22.80;99.90;;;;;;5019770;28;20386;-65
2021/07/28 10:52:51;;;;;;;8.07;4.72;;;22.60;99.90;;;;;;5014025;28;20441;-67
2021/07/28 10:55:21;;;;;;;7.20;4.93;;;22.60;99.90;;;;;;5013771;28;20430;-65
2021/07/28 10:58:08;;;;;;;8.05;4.97;;;22.50;99.90;;;;;;5013582;28;20136;-65
2021/07/28 11:00:40;;;;;;;8.38;5.40;;;22.50;99.90;;;;;;5013992;28;20100;-66
2021/07/28 11:03:09;;;;;;;8.45;4.90;;;22.70;99.90;;;;;;5028976;28;20511;-66
2021/07/28 11:06:03;;;;;;;10.05;5.20;;;22.60;99.90;;;;;;5013845;28;20386;-65
2021/07/28 11:08:31;;;;;;;7.90;4.90;;;22.80;99.90;;;;;;5010459;28;20042;-62
2021/07/28 11:10:58;;;;;;;6.63;4.45;;;22.90;99.90;;;;;;5013311;28;20051;-64
2021/07/28 11:13:34;;;;;;;8.70;5.00;;;23.00;99.90;;;;;;5013451;28;20026;-65
2021/07/28 11:16:06;;;;;;;7.15;4.75;;;23.20;99.90;;;;;;5012081;28;20057;-64
2021/07/28 11:18:48;;;;;;;7.10;4.25;;;23.20;99.90;;;;;;5013708;28;20040;-64
2021/07/28 11:21:21;;;;;;;6.50;4.38;;;23.20;99.90;;;;;;5013567;28;20022;-64
2021/07/28 11:23:55;;;;;;;8.40;4.50;;;23.20;99.90;;;;;;5023546;28;20048;-65
2021/07/28 11:26:31;;;;;;;8.77;5.00;;;23.60;99.90;;;;;;5015893;28;20470;-65
2021/07/28 11:29:06;;;;;;;6.22;4.38;;;23.80;99.90;;;;;;5033206;28;20037;-64
2021/07/28 11:31:39;;;;;;;10.65;4.75;;;23.60;99.90;;;;;;5032910;28;20044;-64
2021/07/28 11:34:16;;;;;;;8.63;5.13;;;23.40;99.90;;;;;;5045292;28;20124;-64
2021/07/28 11:36:56;;;;;;;7.45;4.40;;;23.50;99.90;;;;;;5032584;28;20501;-64
2021/07/28 11:39:23;;;;;;;8.30;4.93;;;23.70;99.90;;;;;;5032824;28;20120;-64
2021/07/28 11:41:58;;;;;;;8.02;5.05;;;23.60;99.90;;;;;;5031192;28;20097;-64
2021/07/28 11:44:24;;;;;;;7.35;4.45;;;23.80;99.90;;;;;;5031373;28;20053;-65
2021/07/28 11:46:55;;;;;;;6.60;3.88;;;23.80;99.90;;;;;;5031797;28;20436;-65
2021/07/28 11:49:25;;;;;;;7.53;3.85;;;24.00;99.90;;;;;;5032878;28;20037;-64
2021/07/28 11:51:58;;;;;;;6.65;3.83;;;24.10;99.90;;;;;;5031179;28;20056;-66
2021/07/28 11:54:23;;;;;;;9.00;4.35;;;23.80;99.90;;;;;;5029718;28;20037;-66
2021/07/28 11:56:52;;;;;;;6.95;4.40;;;23.90;99.90;;;;;;5032542;28;20375;-66
2021/07/28 11:59:28;;;;;;;6.47;4.10;;;23.80;99.90;;;;;;5032670;28;20038;-63
2021/07/28 12:01:56;;;;;;;6.65;3.60;;;23.90;99.90;;;;;;5031234;28;20398;-65
2021/07/28 12:04:25;;;;;;;11.15;3.72;;;23.70;99.90;;;;;;5035067;28;20470;-65
2021/07/28 12:06:53;;;;;;;9.57;3.80;;;23.70;99.90;;;;;;5031257;28;20041;-65
2021/07/28 12:09:19;;;;;;;7.43;4.13;;;23.80;99.90;;;;;;5032008;28;20099;-65
2021/07/28 12:12:19;;;;;;;8.65;3.65;;;24.00;99.90;;;;;;5026788;28;20430;-65
2021/07/28 12:14:46;;;;;;;6.68;3.80;;;24.40;99.90;;;;;;5027230;28;20441;-66
2021/07/28 12:17:18;;;;;;;5.20;3.08;;;24.60;99.90;;;;;;5032376;28;20029;-65
2021/07/28 12:20:14;;;;;;;6.55;3.75;;;24.70;99.90;;;;;;5032160;28;20037;-66
2021/07/28 12:22:42;;;;;;;6.78;3.38;;;24.70;99.90;;;;;;5031355;28;20022;-67
2021/07/28 12:25:12;;;;;;;5.63;3.53;;;24.70;99.90;;;;;;5032183;28;20063;-65
2021/07/28 12:27:56;;;;;;;7.45;3.10;;;25.00;99.90;;;;;;5020443;28;20034;-65
2021/07/28 12:30:26;;;;;;;5.75;3.08;;;25.30;99.90;;;;;;5012536;28;20045;-65
2021/07/28 12:33:06;;;;;;;4.40;2.73;;;25.20;99.90;;;;;;5012523;28;20037;-65
2021/07/28 12:35:54;;;;;;;3.83;2.30;;;25.30;99.90;;;;;;5011287;28;20038;-66
2021/07/28 12:38:23;;;;;;;38.45;6.72;;;25.30;99.90;;;;;;5011528;28;20026;-65
2021/07/28 12:41:05;;;;;;;5.40;2.90;;;25.30;99.90;;;;;;5012388;28;20116;-66
2021/07/28 12:43:36;;;;;;;4.03;2.50;;;25.50;99.90;;;;;;5011334;28;20108;-65
2021/07/28 12:46:08;;;;;;;5.55;3.17;;;25.90;99.90;;;;;;5010826;28;20067;-65
2021/07/28 12:48:35;;;;;;;5.25;3.08;;;25.80;99.90;;;;;;5012135;28;20391;-65